Terminal Aerodrome Forecast
Issued by NWS

Current Version | Previous Version | Text Only | Print | Product List | Glossary Off
Versions: 1 2 3 4 5 6 7 8 9 10 11 12 13 14 15

000
FTUS41 KPBZ 170520
TAFHLG
TAF
KHLG 170520Z 1706/1806 19007KT P6SM FEW060 OVC080
     FM170900 19005KT P6SM VCSH BKN025
     FM171200 21006KT 6SM BR VCSH OVC012
     FM171600 26009KT P6SM BKN025
     FM171900 29006KT P6SM SCT035=

USA.gov is the U.S. government's official web portal to all federal, state and local government web resources and services.